地図

経路データ

SID SEASON NUMBER BASIN SUBBASIN NAME ISO_TIME NATURE LAT LON WMO_WIND WMO_PRES WMO_AGENCY TRACK_TYPE DIST2LAND LANDFALL IFLAG USA_AGENCY USA_ATCF_ID USA_LAT USA_LON USA_RECORD USA_STATUS USA_WIND USA_PRES USA_SSHS USA_R34_NE USA_R34_SE USA_R34_SW USA_R34_NW USA_R50_NE USA_R50_SE USA_R50_SW USA_R50_NW USA_R64_NE USA_R64_SE USA_R64_SW USA_R64_NW USA_POCI USA_ROCI USA_RMW USA_EYE TOKYO_LAT TOKYO_LON TOKYO_GRADE TOKYO_WIND TOKYO_PRES TOKYO_R50_DIR TOKYO_R50_LONG TOKYO_R50_SHORT TOKYO_R30_DIR TOKYO_R30_LONG TOKYO_R30_SHORT TOKYO_LAND CMA_LAT CMA_LON CMA_CAT CMA_WIND CMA_PRES HKO_LAT HKO_LON HKO_CAT HKO_WIND HKO_PRES NEWDELHI_LAT NEWDELHI_LON NEWDELHI_GRADE NEWDELHI_WIND NEWDELHI_PRES NEWDELHI_CI NEWDELHI_DP NEWDELHI_POCI REUNION_LAT REUNION_LON REUNION_TYPE REUNION_WIND REUNION_PRES REUNION_TNUM REUNION_CI REUNION_RMW REUNION_R34_NE REUNION_R34_SE REUNION_R34_SW REUNION_R34_NW REUNION_R50_NE REUNION_R50_SE REUNION_R50_SW REUNION_R50_NW REUNION_R64_NE REUNION_R64_SE REUNION_R64_SW REUNION_R64_NW BOM_LAT BOM_LON BOM_TYPE BOM_WIND BOM_PRES BOM_TNUM BOM_CI BOM_RMW BOM_R34_NE BOM_R34_SE BOM_R34_SW BOM_R34_NW BOM_R50_NE BOM_R50_SE BOM_R50_SW BOM_R50_NW BOM_R64_NE BOM_R64_SE BOM_R64_SW BOM_R64_NW BOM_ROCI BOM_POCI BOM_EYE BOM_POS_METHOD BOM_PRES_METHOD NADI_LAT NADI_LON NADI_CAT NADI_WIND NADI_PRES WELLINGTON_LAT WELLINGTON_LON WELLINGTON_WIND WELLINGTON_PRES DS824_LAT DS824_LON DS824_STAGE DS824_WIND DS824_PRES TD9636_LAT TD9636_LON TD9636_STAGE TD9636_WIND TD9636_PRES TD9635_LAT TD9635_LON TD9635_WIND TD9635_PRES TD9635_ROCI NEUMANN_LAT NEUMANN_LON NEUMANN_CLASS NEUMANN_WIND NEUMANN_PRES MLC_LAT MLC_LON MLC_CLASS MLC_WIND MLC_PRES USA_GUST BOM_GUST BOM_GUST_PER REUNION_GUST REUNION_GUST_PER USA_SEAHGT USA_SEARAD_NE USA_SEARAD_SE USA_SEARAD_SW USA_SEARAD_NW STORM_SPEED STORM_DIR
1930069S10097 1930 18 SI WA NOT_NAMED 1930-03-10 00:00:00 TS -9.80000 96.9000 main 882 882 _________O____ -1 -9.80000 96.9000 TC 25 2 208
1930069S10097 1930 18 SI WA NOT_NAMED 1930-03-10 03:00:00 TS -9.90500 96.8475 main 897 897 _________P____ -1 -9.90500 96.8475 TC 25 2 207
1930069S10097 1930 18 SI WA NOT_NAMED 1930-03-10 06:00:00 TS -10.0000 96.8000 main 905 905 _________O____ -1 -10.0000 96.8000 TC 25 2 207
1930069S10097 1930 18 SI WA NOT_NAMED 1930-03-10 09:00:00 TS -10.0850 96.7575 main 914 914 _________P____ -1 -10.0850 96.7575 TC 25 2 207
1930069S10097 1930 18 SI WA NOT_NAMED 1930-03-10 12:00:00 TS -10.2000 96.7000 main 929 929 _________O____ -1 -10.2000 96.7000 TC 25 3 207
1930069S10097 1930 18 SI WA NOT_NAMED 1930-03-10 15:00:00 TS -10.3850 96.6000 main 953 953 _________P____ -1 -10.3850 96.6000 TC 25 4 206
1930069S10097 1930 18 SI WA NOT_NAMED 1930-03-10 18:00:00 TS -10.6000 96.5000 main 977 977 _________O____ -1 -10.6000 96.5000 TC 25 5 200
1930069S10097 1930 18 SI WA NOT_NAMED 1930-03-10 21:00:00 TS -10.8150 96.4425 main 1001 1001 _________P____ -1 -10.8150 96.4425 TC 25 4 193
1930069S10097 1930 18 SI WA NOT_NAMED 1930-03-11 00:00:00 TS -11.0000 96.4000 main 1018 1018 _________O____ -1 -11.0000 96.4000 TC 25 3 197
1930069S10097 1930 18 SI WA NOT_NAMED 1930-03-11 03:00:00 TS -11.1150 96.3425 main 1034 1034 _________P____ -1 -11.1150 96.3425 TC 25 2 207
1930069S10097 1930 18 SI WA NOT_NAMED 1930-03-11 06:00:00 TS -11.2000 96.3000 main 1043 1043 _________O____ -1 -11.2000 96.3000 TC 25 2 196
1930069S10097 1930 18 SI WA NOT_NAMED 1930-03-11 09:00:00 TS -11.2850 96.2925 main 1051 1051 _________P____ -1 -11.2850 96.2925 TC 25 2 172
1930069S10097 1930 18 SI WA NOT_NAMED 1930-03-11 12:00:00 TS -11.4000 96.3000 main 1060 1060 _________O____ -1 -11.4000 96.3000 TC 25 3 0
1930069S10097 1930 18 SI WA NOT_NAMED 1930-03-11 15:00:00 TS -11.5850 96.3000 main 1077 1077 _________P____ -1 -11.5850 96.3000 TC 25 4 0
1930069S10097 1930 18 SI WA NOT_NAMED 1930-03-11 18:00:00 TS -11.8000 96.3000 main 1093 1093 _________O____ -1 -11.8000 96.3000 TC 25 4 0
1930069S10097 1930 18 SI WA NOT_NAMED 1930-03-11 21:00:00 TS -12.0225 96.3000 main 1110 1110 _________P____ -1 -12.0225 96.3000 TC 25 4 0
1930069S10097 1930 18 SI WA NOT_NAMED 1930-03-12 00:00:00 TS -12.2000 96.3000 main 1127 1127 _________O____ -1 -12.2000 96.3000 TC 25 3 178
1930069S10097 1930 18 SI WA NOT_NAMED 1930-03-12 03:00:00 TS -12.2725 96.3000 main 1136 1136 _________P____ -1 -12.2725 96.3000 TC 25 1 0
1930069S10097 1930 18 SI WA NOT_NAMED 1930-03-12 06:00:00 TS -12.3000 96.3000 main 1136 1136 _________O____ -1 -12.3000 96.3000 TC 25 1 169
1930069S10097 1930 18 SI WA NOT_NAMED 1930-03-12 09:00:00 TS -12.3275 96.3000 main 1136 1136 _________P____ -1 -12.3275 96.3000 TC 25 1 0
1930069S10097 1930 18 SI WA NOT_NAMED 1930-03-12 12:00:00 TS -12.4000 96.3000 main 1144 1144 _________O____ -1 -12.4000 96.3000 TC 25 3 0
1930069S10097 1930 18 SI WA NOT_NAMED 1930-03-12 15:00:00 TS -12.5850 96.2925 main 1161 1161 _________P____ -1 -12.5850 96.2925 TC 25 4 0
1930069S10097 1930 18 SI WA NOT_NAMED 1930-03-12 18:00:00 TS -12.8000 96.3000 main 1179 1179 _________O____ -1 -12.8000 96.3000 TC 25 4 175
1930069S10097 1930 18 SI WA NOT_NAMED 1930-03-12 21:00:00 TS -12.9650 96.3350 main 1196 1188 _________P____ -1 -12.9650 96.3350 TC 25 3 163
1930069S10097 1930 18 SI WA NOT_NAMED 1930-03-13 00:00:00 TS -13.1000 96.4000 main 1194 1192 _________O____ -1 -13.1000 96.4000 TC 25 3 148
1930069S10097 1930 18 SI WA NOT_NAMED 1930-03-13 03:00:00 TS -13.2075 96.4850 main 1192 1190 _________P____ -1 -13.2075 96.4850 TC 25 3 136
1930069S10097 1930 18 SI WA NOT_NAMED 1930-03-13 06:00:00 TS -13.3000 96.6000 main 1190 1181 _________O____ -1 -13.3000 96.6000 TC 25 3 127
1930069S10097 1930 18 SI WA NOT_NAMED 1930-03-13 09:00:00 TS -13.4000 96.7425 main 1188 1178 _________P____ -1 -13.4000 96.7425 TC 25 4 124
1930069S10097 1930 18 SI WA NOT_NAMED 1930-03-13 12:00:00 TS -13.5000 96.9000 main 1178 1170 _________O____ -1 -13.5000 96.9000 TC 25 4 125
1930069S10097 1930 18 SI WA NOT_NAMED 1930-03-13 15:00:00 TS -13.6075 97.0500 main 1168 1167 _________P____ -1 -13.6075 97.0500 TC 25 4 124
1930069S10097 1930 18 SI WA NOT_NAMED 1930-03-13 18:00:00 TS -13.7000 97.2000 main 1167 1159 _________O____ -1 -13.7000 97.2000 TC 25 3 118
1930069S10097 1930 18 SI WA NOT_NAMED 1930-03-13 21:00:00 TS -13.7575 97.3425 main 1166 1150 _________P____ -1 -13.7575 97.3425 TC 25 3 109
1930069S10097 1930 18 SI WA NOT_NAMED 1930-03-14 00:00:00 TS -13.8000 97.5000 main 1150 1134 _________O____ -1 -13.8000 97.5000 TC 25 4 106
1930069S10097 1930 18 SI WA NOT_NAMED 1930-03-14 03:00:00 TS -13.8575 97.6925 main 1142 1126 _________P____ -1 -13.8575 97.6925 TC 25 4 104
1930069S10097 1930 18 SI WA NOT_NAMED 1930-03-14 06:00:00 TS -13.9000 97.9000 main 1126 1111 _________O____ -1 -13.9000 97.9000 TC 25 4 97
1930069S10097 1930 18 SI WA NOT_NAMED 1930-03-14 09:00:00 TS -13.9075 98.1000 main 1111 1096 _________P____ -1 -13.9075 98.1000 TC 25 4 90
1930069S10097 1930 18 SI WA NOT_NAMED 1930-03-14 12:00:00 TS -13.9000 98.3000 main 1096 1081 _________O____ -1 -13.9000 98.3000 TC 25 4 89
1930069S10097 1930 18 SI WA NOT_NAMED 1930-03-14 15:00:00 TS -13.9000 98.5075 main 1081 1066 _________P____ -1 -13.9000 98.5075 TC 25 4 90
1930069S10097 1930 18 SI WA NOT_NAMED 1930-03-14 18:00:00 TS -13.9000 98.7000 main 1066 1052 _________O____ -1 -13.9000 98.7000 TC 25 3 90
1930069S10097 1930 18 SI WA NOT_NAMED 1930-03-14 21:00:00 TS -13.9000 98.8600 main 1052 1045 _________P____ -1 -13.9000 98.8600 TC 25 3 90
1930069S10097 1930 18 SI WA NOT_NAMED 1930-03-15 00:00:00 TS -13.9000 99.0000 main 1045 _________O____ -1 -13.9000 99.0000 TC 25 3 90

IBTrACS Databaseについて

本データベースは、米国NOAAが公開する1842年以降の世界の熱帯低気圧のベストトラックデータアーカイブInternational Best Track Archive for Climate Stewardship (IBTrACS)を、ウェブで閲覧しやすい形式に変換したものです。

最終更新日:2021-10-08